sensor_id;sensor_type;location;lat;lon;timestamp;temperature;humidity
30234;DHT22;17046;52.074;4.748;2023-03-14T00:02:03;11.10;82.60
30234;DHT22;17046;52.074;4.748;2023-03-14T00:04:28;11.20;81.70
30234;DHT22;17046;52.074;4.748;2023-03-14T00:06:54;11.20;92.20
30234;DHT22;17046;52.074;4.748;2023-03-14T00:09:19;10.50;95.50
30234;DHT22;17046;52.074;4.748;2023-03-14T00:11:45;11.30;97.70
30234;DHT22;17046;52.074;4.748;2023-03-14T00:16:37;11.30;99.90
30234;DHT22;17046;52.074;4.748;2023-03-14T00:19:03;11.10;99.90
30234;DHT22;17046;52.074;4.748;2023-03-14T00:21:28;11.10;85.40
30234;DHT22;17046;52.074;4.748;2023-03-14T00:23:54;11.10;84.50
30234;DHT22;17046;52.074;4.748;2023-03-14T00:26:21;11.00;77.90
30234;DHT22;17046;52.074;4.748;2023-03-14T00:28:47;11.00;72.10
30234;DHT22;17046;52.074;4.748;2023-03-14T00:31:16;11.00;58.00
30234;DHT22;17046;52.074;4.748;2023-03-14T00:33:44;11.10;97.00
30234;DHT22;17046;52.074;4.748;2023-03-14T00:36:15;11.00;99.90
30234;DHT22;17046;52.074;4.748;2023-03-14T00:38:42;10.90;95.20
30234;DHT22;17046;52.074;4.748;2023-03-14T00:41:10;11.30;99.90
30234;DHT22;17046;52.074;4.748;2023-03-14T00:43:36;10.90;99.90
30234;DHT22;17046;52.074;4.748;2023-03-14T00:46:02;10.90;99.90
30234;DHT22;17046;52.074;4.748;2023-03-14T00:48:28;10.60;99.90
30234;DHT22;17046;52.074;4.748;2023-03-14T00:50:54;10.70;99.90
30234;DHT22;17046;52.074;4.748;2023-03-14T00:53:19;10.60;99.90
30234;DHT22;17046;52.074;4.748;2023-03-14T00:55:45;10.60;99.90
30234;DHT22;17046;52.074;4.748;2023-03-14T00:58:13;10.50;99.90
30234;DHT22;17046;52.074;4.748;2023-03-14T01:00:39;10.50;99.90
30234;DHT22;17046;52.074;4.748;2023-03-14T01:03:06;10.40;99.90
30234;DHT22;17046;52.074;4.748;2023-03-14T01:05:32;10.60;99.90
30234;DHT22;17046;52.074;4.748;2023-03-14T01:07:58;10.60;99.90
30234;DHT22;17046;52.074;4.748;2023-03-14T01:10:23;9.70;99.90
30234;DHT22;17046;52.074;4.748;2023-03-14T01:12:49;10.70;99.90
30234;DHT22;17046;52.074;4.748;2023-03-14T01:15:15;10.40;99.90
30234;DHT22;17046;52.074;4.748;2023-03-14T01:17:41;10.40;99.90
30234;DHT22;17046;52.074;4.748;2023-03-14T01:20:09;10.90;99.90
30234;DHT22;17046;52.074;4.748;2023-03-14T01:22:36;10.40;99.90
30234;DHT22;17046;52.074;4.748;2023-03-14T01:25:04;10.50;99.90
30234;DHT22;17046;52.074;4.748;2023-03-14T01:27:30;10.60;99.90
30234;DHT22;17046;52.074;4.748;2023-03-14T01:29:55;10.20;99.90
30234;DHT22;17046;52.074;4.748;2023-03-14T01:32:21;10.70;99.90
30234;DHT22;17046;52.074;4.748;2023-03-14T01:34:46;10.60;99.90
30234;DHT22;17046;52.074;4.748;2023-03-14T01:37:12;10.40;99.90
30234;DHT22;17046;52.074;4.748;2023-03-14T01:39:38;10.40;99.90
30234;DHT22;17046;52.074;4.748;2023-03-14T01:42:04;10.50;99.90
30234;DHT22;17046;52.074;4.748;2023-03-14T01:50:08;10.40;99.90
30234;DHT22;17046;52.074;4.748;2023-03-14T01:52:43;10.60;99.90
30234;DHT22;17046;52.074;4.748;2023-03-14T01:55:13;10.20;99.90
30234;DHT22;17046;52.074;4.748;2023-03-14T01:57:46;10.40;99.90
30234;DHT22;17046;52.074;4.748;2023-03-14T02:00:19;10.40;99.90
30234;DHT22;17046;52.074;4.748;2023-03-14T02:02:51;10.40;99.90
30234;DHT22;17046;52.074;4.748;2023-03-14T02:05:21;9.80;99.90
30234;DHT22;17046;52.074;4.748;2023-03-14T02:07:56;10.40;99.90
30234;DHT22;17046;52.074;4.748;2023-03-14T02:10:25;10.40;99.90
30234;DHT22;17046;52.074;4.748;2023-03-14T02:12:53;10.40;99.90
30234;DHT22;17046;52.074;4.748;2023-03-14T02:15:20;10.40;99.90
30234;DHT22;17046;52.074;4.748;2023-03-14T02:17:46;10.30;99.90
30234;DHT22;17046;52.074;4.748;2023-03-14T02:22:49;10.40;99.90
30234;DHT22;17046;52.074;4.748;2023-03-14T02:25:46;10.60;99.90
30234;DHT22;17046;52.074;4.748;2023-03-14T02:28:12;10.40;99.90
30234;DHT22;17046;52.074;4.748;2023-03-14T02:30:38;10.50;99.90
30234;DHT22;17046;52.074;4.748;2023-03-14T02:33:16;10.40;99.90
30234;DHT22;17046;52.074;4.748;2023-03-14T02:41:10;10.30;99.90
30234;DHT22;17046;52.074;4.748;2023-03-14T02:43:35;10.30;99.90
30234;DHT22;17046;52.074;4.748;2023-03-14T02:46:03;10.30;99.90
30234;DHT22;17046;52.074;4.748;2023-03-14T02:48:35;10.20;99.90
30234;DHT22;17046;52.074;4.748;2023-03-14T02:51:03;10.20;99.90
30234;DHT22;17046;52.074;4.748;2023-03-14T02:53:32;10.20;99.90
30234;DHT22;17046;52.074;4.748;2023-03-14T02:55:58;10.20;99.90
30234;DHT22;17046;52.074;4.748;2023-03-14T02:58:24;10.20;99.90
30234;DHT22;17046;52.074;4.748;2023-03-14T03:00:50;10.00;99.90
30234;DHT22;17046;52.074;4.748;2023-03-14T03:03:16;10.00;99.90
30234;DHT22;17046;52.074;4.748;2023-03-14T03:05:42;9.90;99.90
30234;DHT22;17046;52.074;4.748;2023-03-14T03:08:09;9.90;99.90
30234;DHT22;17046;52.074;4.748;2023-03-14T03:10:35;9.80;99.90
30234;DHT22;17046;52.074;4.748;2023-03-14T03:13:01;9.80;99.90
30234;DHT22;17046;52.074;4.748;2023-03-14T03:15:27;9.80;99.90
30234;DHT22;17046;52.074;4.748;2023-03-14T03:17:52;9.80;99.90
30234;DHT22;17046;52.074;4.748;2023-03-14T03:20:18;9.40;99.90
30234;DHT22;17046;52.074;4.748;2023-03-14T03:22:43;10.00;99.90
30234;DHT22;17046;52.074;4.748;2023-03-14T03:25:09;9.80;99.90
30234;DHT22;17046;52.074;4.748;2023-03-14T03:27:36;10.40;99.90
30234;DHT22;17046;52.074;4.748;2023-03-14T03:30:04;10.20;99.90
30234;DHT22;17046;52.074;4.748;2023-03-14T03:32:31;10.00;99.90
30234;DHT22;17046;52.074;4.748;2023-03-14T03:34:56;9.90;99.90
30234;DHT22;17046;52.074;4.748;2023-03-14T03:37:22;10.00;99.90
30234;DHT22;17046;52.074;4.748;2023-03-14T03:39:50;10.10;99.90
30234;DHT22;17046;52.074;4.748;2023-03-14T03:42:16;10.10;99.90
30234;DHT22;17046;52.074;4.748;2023-03-14T03:44:42;10.10;99.90
30234;DHT22;17046;52.074;4.748;2023-03-14T03:47:07;10.20;99.90
30234;DHT22;17046;52.074;4.748;2023-03-14T03:49:33;10.10;99.90
30234;DHT22;17046;52.074;4.748;2023-03-14T03:51:59;10.00;99.90
30234;DHT22;17046;52.074;4.748;2023-03-14T03:54:25;10.20;99.90
30234;DHT22;17046;52.074;4.748;2023-03-14T03:56:51;10.20;99.90
30234;DHT22;17046;52.074;4.748;2023-03-14T03:59:17;10.20;99.90
30234;DHT22;17046;52.074;4.748;2023-03-14T04:01:43;10.20;99.90
30234;DHT22;17046;52.074;4.748;2023-03-14T04:04:09;10.20;99.90
30234;DHT22;17046;52.074;4.748;2023-03-14T04:06:35;10.20;99.90
30234;DHT22;17046;52.074;4.748;2023-03-14T04:09:01;10.20;99.90
30234;DHT22;17046;52.074;4.748;2023-03-14T04:11:26;10.30;99.90
30234;DHT22;17046;52.074;4.748;2023-03-14T04:13:52;10.20;99.90
30234;DHT22;17046;52.074;4.748;2023-03-14T04:16:21;10.20;99.90
30234;DHT22;17046;52.074;4.748;2023-03-14T04:18:47;11.10;99.90
30234;DHT22;17046;52.074;4.748;2023-03-14T04:21:12;9.60;99.90
30234;DHT22;17046;52.074;4.748;2023-03-14T04:23:38;10.40;99.90
30234;DHT22;17046;52.074;4.748;2023-03-14T04:28:30;9.80;99.90
30234;DHT22;17046;52.074;4.748;2023-03-14T04:30:56;10.00;99.90
30234;DHT22;17046;52.074;4.748;2023-03-14T04:33:22;9.60;99.90
30234;DHT22;17046;52.074;4.748;2023-03-14T04:35:47;9.70;99.90
30234;DHT22;17046;52.074;4.748;2023-03-14T04:38:15;9.70;99.90
30234;DHT22;17046;52.074;4.748;2023-03-14T04:40:41;9.70;99.90
30234;DHT22;17046;52.074;4.748;2023-03-14T04:43:08;9.60;99.90
30234;DHT22;17046;52.074;4.748;2023-03-14T04:45:35;9.70;99.90
30234;DHT22;17046;52.074;4.748;2023-03-14T04:48:01;9.50;99.90
30234;DHT22;17046;52.074;4.748;2023-03-14T04:50:27;9.60;99.90
30234;DHT22;17046;52.074;4.748;2023-03-14T04:52:52;9.40;99.90
30234;DHT22;17046;52.074;4.748;2023-03-14T04:57:44;9.40;99.90
30234;DHT22;17046;52.074;4.748;2023-03-14T05:00:11;9.30;99.90
30234;DHT22;17046;52.074;4.748;2023-03-14T05:02:37;9.60;99.90
30234;DHT22;17046;52.074;4.748;2023-03-14T05:05:03;9.60;99.90
30234;DHT22;17046;52.074;4.748;2023-03-14T05:07:29;9.30;99.90
30234;DHT22;17046;52.074;4.748;2023-03-14T05:09:55;9.20;99.90
30234;DHT22;17046;52.074;4.748;2023-03-14T05:12:20;9.20;99.90
30234;DHT22;17046;52.074;4.748;2023-03-14T05:14:46;9.20;99.90
30234;DHT22;17046;52.074;4.748;2023-03-14T05:17:12;9.20;99.90
30234;DHT22;17046;52.074;4.748;2023-03-14T05:19:40;9.10;99.90
30234;DHT22;17046;52.074;4.748;2023-03-14T05:22:06;9.40;99.90
30234;DHT22;17046;52.074;4.748;2023-03-14T05:24:32;8.50;99.90
30234;DHT22;17046;52.074;4.748;2023-03-14T05:29:23;9.10;99.90
30234;DHT22;17046;52.074;4.748;2023-03-14T05:34:15;9.10;99.90
30234;DHT22;17046;52.074;4.748;2023-03-14T05:36:41;9.30;99.90
30234;DHT22;17046;52.074;4.748;2023-03-14T05:43:58;9.30;99.90
30234;DHT22;17046;52.074;4.748;2023-03-14T05:46:24;9.40;99.90
30234;DHT22;17046;52.074;4.748;2023-03-14T05:51:16;8.80;99.90
30234;DHT22;17046;52.074;4.748;2023-03-14T05:53:41;9.10;99.90
30234;DHT22;17046;52.074;4.748;2023-03-14T05:56:07;8.80;99.90
30234;DHT22;17046;52.074;4.748;2023-03-14T06:01:03;8.40;99.90
30234;DHT22;17046;52.074;4.748;2023-03-14T06:08:21;7.70;99.90
30234;DHT22;17046;52.074;4.748;2023-03-14T06:10:47;8.10;99.90
30234;DHT22;17046;52.074;4.748;2023-03-14T06:18:04;7.80;99.90
30234;DHT22;17046;52.074;4.748;2023-03-14T06:20:30;8.00;99.90
30234;DHT22;17046;52.074;4.748;2023-03-14T06:25:21;8.00;99.90
30234;DHT22;17046;52.074;4.748;2023-03-14T06:27:47;7.80;99.90
30234;DHT22;17046;52.074;4.748;2023-03-14T06:30:13;7.20;99.90
30234;DHT22;17046;52.074;4.748;2023-03-14T06:35:05;7.70;99.90
30234;DHT22;17046;52.074;4.748;2023-03-14T06:37:30;7.70;99.90
30234;DHT22;17046;52.074;4.748;2023-03-14T06:42:22;7.70;99.90
30234;DHT22;17046;52.074;4.748;2023-03-14T06:44:48;7.50;99.90
30234;DHT22;17046;52.074;4.748;2023-03-14T06:47:14;7.30;99.90
30234;DHT22;17046;52.074;4.748;2023-03-14T06:56:57;7.00;99.90
30234;DHT22;17046;52.074;4.748;2023-03-14T06:59:23;7.60;99.90
30234;DHT22;17046;52.074;4.748;2023-03-14T07:04:16;7.20;99.90
30234;DHT22;17046;52.074;4.748;2023-03-14T07:06:42;7.60;99.90
30234;DHT22;17046;52.074;4.748;2023-03-14T07:09:10;7.60;99.90
30234;DHT22;17046;52.074;4.748;2023-03-14T07:14:02;6.80;99.90
30234;DHT22;17046;52.074;4.748;2023-03-14T07:18:57;7.50;99.90
30234;DHT22;17046;52.074;4.748;2023-03-14T07:21:22;7.30;99.90
30234;DHT22;17046;52.074;4.748;2023-03-14T07:28:40;7.50;99.90
30234;DHT22;17046;52.074;4.748;2023-03-14T07:31:06;7.10;99.90
30234;DHT22;17046;52.074;4.748;2023-03-14T07:33:32;7.00;99.90
30234;DHT22;17046;52.074;4.748;2023-03-14T07:35:58;7.30;99.90
30234;DHT22;17046;52.074;4.748;2023-03-14T07:45:46;7.10;99.90
30234;DHT22;17046;52.074;4.748;2023-03-14T07:50:37;6.90;99.90
30234;DHT22;17046;52.074;4.748;2023-03-14T07:53:03;7.10;99.90
30234;DHT22;17046;52.074;4.748;2023-03-14T07:57:54;6.80;99.90
30234;DHT22;17046;52.074;4.748;2023-03-14T08:00:21;6.40;99.90
30234;DHT22;17046;52.074;4.748;2023-03-14T08:05:12;5.80;99.90
30234;DHT22;17046;52.074;4.748;2023-03-14T08:07:38;6.80;99.90
30234;DHT22;17046;52.074;4.748;2023-03-14T08:10:04;6.60;99.90
30234;DHT22;17046;52.074;4.748;2023-03-14T08:14:56;6.60;99.90
30234;DHT22;17046;52.074;4.748;2023-03-14T08:17:22;6.40;99.90
30234;DHT22;17046;52.074;4.748;2023-03-14T08:19:47;6.10;99.90
30234;DHT22;17046;52.074;4.748;2023-03-14T08:24:39;5.90;99.90
30234;DHT22;17046;52.074;4.748;2023-03-14T08:34:24;6.20;99.90
30234;DHT22;17046;52.074;4.748;2023-03-14T08:36:49;6.20;99.90
30234;DHT22;17046;52.074;4.748;2023-03-14T08:39:15;6.50;99.90
30234;DHT22;17046;52.074;4.748;2023-03-14T08:44:08;5.90;99.90
30234;DHT22;17046;52.074;4.748;2023-03-14T08:46:34;6.20;99.90
30234;DHT22;17046;52.074;4.748;2023-03-14T08:51:27;6.20;99.90
30234;DHT22;17046;52.074;4.748;2023-03-14T08:53:53;6.70;99.90
30234;DHT22;17046;52.074;4.748;2023-03-14T08:58:44;6.90;99.90
30234;DHT22;17046;52.074;4.748;2023-03-14T09:01:10;6.60;99.90
30234;DHT22;17046;52.074;4.748;2023-03-14T09:03:37;7.10;99.90
30234;DHT22;17046;52.074;4.748;2023-03-14T09:06:10;6.70;99.90
30234;DHT22;17046;52.074;4.748;2023-03-14T09:08:36;6.50;99.90
30234;DHT22;17046;52.074;4.748;2023-03-14T09:11:02;6.90;99.90
30234;DHT22;17046;52.074;4.748;2023-03-14T09:13:28;7.10;99.90
30234;DHT22;17046;52.074;4.748;2023-03-14T09:15:54;7.20;99.90
30234;DHT22;17046;52.074;4.748;2023-03-14T09:23:14;6.90;99.90
30234;DHT22;17046;52.074;4.748;2023-03-14T09:25:40;7.00;99.90
30234;DHT22;17046;52.074;4.748;2023-03-14T09:30:32;6.90;99.90
30234;DHT22;17046;52.074;4.748;2023-03-14T09:35:24;6.40;99.90
30234;DHT22;17046;52.074;4.748;2023-03-14T09:37:50;6.70;99.90
30234;DHT22;17046;52.074;4.748;2023-03-14T09:40:17;6.50;99.90
30234;DHT22;17046;52.074;4.748;2023-03-14T09:42:46;6.50;99.90
30234;DHT22;17046;52.074;4.748;2023-03-14T09:45:21;6.00;99.90
30234;DHT22;17046;52.074;4.748;2023-03-14T09:47:48;5.60;99.90
30234;DHT22;17046;52.074;4.748;2023-03-14T09:50:14;5.70;99.90
30234;DHT22;17046;52.074;4.748;2023-03-14T09:52:44;5.50;99.90
30234;DHT22;17046;52.074;4.748;2023-03-14T09:55:14;5.60;99.90
30234;DHT22;17046;52.074;4.748;2023-03-14T09:57:41;5.50;99.90
30234;DHT22;17046;52.074;4.748;2023-03-14T10:00:25;5.70;99.90
30234;DHT22;17046;52.074;4.748;2023-03-14T10:03:29;5.70;99.90
30234;DHT22;17046;52.074;4.748;2023-03-14T10:05:45;5.90;99.90
30234;DHT22;17046;52.074;4.748;2023-03-14T10:08:12;6.20;99.90
30234;DHT22;17046;52.074;4.748;2023-03-14T10:13:17;6.70;99.90
30234;DHT22;17046;52.074;4.748;2023-03-14T10:15:51;6.50;99.90
30234;DHT22;17046;52.074;4.748;2023-03-14T10:20:45;6.30;99.90
30234;DHT22;17046;52.074;4.748;2023-03-14T10:25:40;6.00;99.90
30234;DHT22;17046;52.074;4.748;2023-03-14T10:28:33;6.40;99.90
30234;DHT22;17046;52.074;4.748;2023-03-14T10:30:59;6.10;99.90
30234;DHT22;17046;52.074;4.748;2023-03-14T10:33:27;5.90;99.90
30234;DHT22;17046;52.074;4.748;2023-03-14T10:36:15;6.70;99.90
30234;DHT22;17046;52.074;4.748;2023-03-14T10:38:42;5.90;99.90
30234;DHT22;17046;52.074;4.748;2023-03-14T10:41:23;6.60;99.90
30234;DHT22;17046;52.074;4.748;2023-03-14T10:43:54;6.70;99.90
30234;DHT22;17046;52.074;4.748;2023-03-14T10:46:23;6.80;99.90
30234;DHT22;17046;52.074;4.748;2023-03-14T10:53:49;7.40;99.90
30234;DHT22;17046;52.074;4.748;2023-03-14T10:56:18;7.20;77.20
30234;DHT22;17046;52.074;4.748;2023-03-14T10:58:46;7.20;1.00
30234;DHT22;17046;52.074;4.748;2023-03-14T11:01:29;6.90;12.80
30234;DHT22;17046;52.074;4.748;2023-03-14T11:04:09;6.20;50.30
30234;DHT22;17046;52.074;4.748;2023-03-14T11:14:54;7.00;1.00
30234;DHT22;17046;52.074;4.748;2023-03-14T11:17:46;6.60;1.00
30234;DHT22;17046;52.074;4.748;2023-03-14T11:26:08;8.20;1.00
30234;DHT22;17046;52.074;4.748;2023-03-14T11:28:41;8.20;1.00
30234;DHT22;17046;52.074;4.748;2023-03-14T11:31:29;7.80;1.00
30234;DHT22;17046;52.074;4.748;2023-03-14T11:37:06;8.10;99.90
30234;DHT22;17046;52.074;4.748;2023-03-14T11:39:40;7.90;1.00
30234;DHT22;17046;52.074;4.748;2023-03-14T11:42:12;8.30;99.90
30234;DHT22;17046;52.074;4.748;2023-03-14T11:44:40;8.40;1.00
30234;DHT22;17046;52.074;4.748;2023-03-14T11:47:15;7.90;99.90
30234;DHT22;17046;52.074;4.748;2023-03-14T11:54:58;8.30;99.90
30234;DHT22;17046;52.074;4.748;2023-03-14T12:00:03;8.20;99.90
30234;DHT22;17046;52.074;4.748;2023-03-14T12:05:32;7.90;99.90
30234;DHT22;17046;52.074;4.748;2023-03-14T12:10:55;7.70;99.90
30234;DHT22;17046;52.074;4.748;2023-03-14T12:13:32;8.30;99.90
30234;DHT22;17046;52.074;4.748;2023-03-14T12:16:00;8.40;99.90
30234;DHT22;17046;52.074;4.748;2023-03-14T12:18:33;8.10;99.90
30234;DHT22;17046;52.074;4.748;2023-03-14T12:21:05;8.80;99.90
30234;DHT22;17046;52.074;4.748;2023-03-14T12:23:52;9.00;99.90
30234;DHT22;17046;52.074;4.748;2023-03-14T12:31:43;8.70;99.90
30234;DHT22;17046;52.074;4.748;2023-03-14T12:42:02;8.00;99.90
30234;DHT22;17046;52.074;4.748;2023-03-14T12:47:47;7.60;99.90
30234;DHT22;17046;52.074;4.748;2023-03-14T12:49:54;7.60;99.90
30234;DHT22;17046;52.074;4.748;2023-03-14T12:52:36;7.60;99.90
30234;DHT22;17046;52.074;4.748;2023-03-14T12:55:07;7.60;99.90
30234;DHT22;17046;52.074;4.748;2023-03-14T12:58:03;7.40;99.90
30234;DHT22;17046;52.074;4.748;2023-03-14T13:00:34;7.60;99.90
30234;DHT22;17046;52.074;4.748;2023-03-14T13:03:12;7.60;99.90
30234;DHT22;17046;52.074;4.748;2023-03-14T13:05:52;8.10;99.90
30234;DHT22;17046;52.074;4.748;2023-03-14T13:08:34;7.60;99.90
30234;DHT22;17046;52.074;4.748;2023-03-14T13:11:01;7.70;99.90
30234;DHT22;17046;52.074;4.748;2023-03-14T13:13:29;8.10;99.90
30234;DHT22;17046;52.074;4.748;2023-03-14T13:16:00;8.00;99.90
30234;DHT22;17046;52.074;4.748;2023-03-14T13:18:42;8.00;99.90
30234;DHT22;17046;52.074;4.748;2023-03-14T13:21:21;7.90;99.90
30234;DHT22;17046;52.074;4.748;2023-03-14T13:23:59;8.10;99.90
30234;DHT22;17046;52.074;4.748;2023-03-14T13:26:36;8.10;99.90
30234;DHT22;17046;52.074;4.748;2023-03-14T13:29:18;8.10;99.90
30234;DHT22;17046;52.074;4.748;2023-03-14T13:32:33;8.00;99.90
30234;DHT22;17046;52.074;4.748;2023-03-14T13:34:34;8.20;99.90
30234;DHT22;17046;52.074;4.748;2023-03-14T13:39:28;8.30;99.90
30234;DHT22;17046;52.074;4.748;2023-03-14T13:41:58;8.60;99.90
30234;DHT22;17046;52.074;4.748;2023-03-14T13:44:29;7.70;99.90
30234;DHT22;17046;52.074;4.748;2023-03-14T13:47:00;7.90;99.90
30234;DHT22;17046;52.074;4.748;2023-03-14T13:49:28;8.30;99.90
30234;DHT22;17046;52.074;4.748;2023-03-14T13:51:54;7.90;99.90
30234;DHT22;17046;52.074;4.748;2023-03-14T13:54:22;7.70;99.90
30234;DHT22;17046;52.074;4.748;2023-03-14T13:56:48;8.10;99.90
30234;DHT22;17046;52.074;4.748;2023-03-14T13:59:25;7.60;99.90
30234;DHT22;17046;52.074;4.748;2023-03-14T14:01:52;7.40;99.90
30234;DHT22;17046;52.074;4.748;2023-03-14T14:04:21;7.80;99.90
30234;DHT22;17046;52.074;4.748;2023-03-14T14:06:50;7.80;99.90
30234;DHT22;17046;52.074;4.748;2023-03-14T14:09:22;7.40;99.90
30234;DHT22;17046;52.074;4.748;2023-03-14T14:11:55;7.40;99.90
30234;DHT22;17046;52.074;4.748;2023-03-14T14:14:32;7.70;99.90
30234;DHT22;17046;52.074;4.748;2023-03-14T14:17:00;7.50;99.90
30234;DHT22;17046;52.074;4.748;2023-03-14T14:19:28;8.00;99.90
30234;DHT22;17046;52.074;4.748;2023-03-14T14:21:55;7.60;99.90
30234;DHT22;17046;52.074;4.748;2023-03-14T14:24:23;7.80;99.90
30234;DHT22;17046;52.074;4.748;2023-03-14T14:26:58;7.80;99.90
30234;DHT22;17046;52.074;4.748;2023-03-14T14:29:32;7.60;99.90
30234;DHT22;17046;52.074;4.748;2023-03-14T14:36:54;7.90;99.90
30234;DHT22;17046;52.074;4.748;2023-03-14T14:39:23;7.90;99.90
30234;DHT22;17046;52.074;4.748;2023-03-14T14:41:50;7.80;99.90
30234;DHT22;17046;52.074;4.748;2023-03-14T14:44:20;7.60;99.90
30234;DHT22;17046;52.074;4.748;2023-03-14T14:49:14;7.90;99.90
30234;DHT22;17046;52.074;4.748;2023-03-14T14:51:48;7.90;99.90
30234;DHT22;17046;52.074;4.748;2023-03-14T14:54:17;7.80;99.90
30234;DHT22;17046;52.074;4.748;2023-03-14T14:57:06;7.70;99.90
30234;DHT22;17046;52.074;4.748;2023-03-14T14:59:44;7.70;99.90
30234;DHT22;17046;52.074;4.748;2023-03-14T15:02:29;7.70;99.90
30234;DHT22;17046;52.074;4.748;2023-03-14T15:04:55;6.90;99.90
30234;DHT22;17046;52.074;4.748;2023-03-14T15:09:46;7.50;99.90
30234;DHT22;17046;52.074;4.748;2023-03-14T15:17:08;7.20;99.90
30234;DHT22;17046;52.074;4.748;2023-03-14T15:19:34;6.30;99.90
30234;DHT22;17046;52.074;4.748;2023-03-14T15:24:26;7.70;99.90
30234;DHT22;17046;52.074;4.748;2023-03-14T15:26:52;7.70;99.90
30234;DHT22;17046;52.074;4.748;2023-03-14T15:29:17;7.90;99.90
30234;DHT22;17046;52.074;4.748;2023-03-14T15:34:09;7.80;99.90
30234;DHT22;17046;52.074;4.748;2023-03-14T15:36:36;8.00;99.90
30234;DHT22;17046;52.074;4.748;2023-03-14T15:39:06;7.70;99.90
30234;DHT22;17046;52.074;4.748;2023-03-14T15:46:24;7.40;99.90
30234;DHT22;17046;52.074;4.748;2023-03-14T15:48:51;7.40;99.90
30234;DHT22;17046;52.074;4.748;2023-03-14T15:51:17;7.80;99.90
30234;DHT22;17046;52.074;4.748;2023-03-14T15:53:43;7.80;99.90
30234;DHT22;17046;52.074;4.748;2023-03-14T15:56:14;7.70;99.90
30234;DHT22;17046;52.074;4.748;2023-03-14T16:01:07;7.40;99.90
30234;DHT22;17046;52.074;4.748;2023-03-14T16:06:03;7.80;99.90
30234;DHT22;17046;52.074;4.748;2023-03-14T16:08:28;7.10;99.90
30234;DHT22;17046;52.074;4.748;2023-03-14T16:10:57;7.50;99.90
30234;DHT22;17046;52.074;4.748;2023-03-14T16:18:19;7.00;99.90
30234;DHT22;17046;52.074;4.748;2023-03-14T16:20:55;7.00;99.90
30234;DHT22;17046;52.074;4.748;2023-03-14T16:23:21;7.10;99.90
30234;DHT22;17046;52.074;4.748;2023-03-14T16:25:46;6.90;99.90
30234;DHT22;17046;52.074;4.748;2023-03-14T16:30:38;7.00;99.90
30234;DHT22;17046;52.074;4.748;2023-03-14T16:35:37;6.90;99.90
30234;DHT22;17046;52.074;4.748;2023-03-14T16:38:03;6.90;99.90
30234;DHT22;17046;52.074;4.748;2023-03-14T16:40:29;7.00;99.90
30234;DHT22;17046;52.074;4.748;2023-03-14T16:42:54;6.70;99.90
30234;DHT22;17046;52.074;4.748;2023-03-14T16:45:20;6.70;99.90
30234;DHT22;17046;52.074;4.748;2023-03-14T16:47:46;6.30;99.90
30234;DHT22;17046;52.074;4.748;2023-03-14T16:57:32;6.40;99.90
30234;DHT22;17046;52.074;4.748;2023-03-14T17:02:24;6.70;99.90
30234;DHT22;17046;52.074;4.748;2023-03-14T17:04:49;6.40;99.90
30234;DHT22;17046;52.074;4.748;2023-03-14T17:07:16;6.80;99.90
30234;DHT22;17046;52.074;4.748;2023-03-14T17:12:08;7.10;99.90
30234;DHT22;17046;52.074;4.748;2023-03-14T17:14:33;6.70;99.90
30234;DHT22;17046;52.074;4.748;2023-03-14T17:19:25;7.00;99.90
30234;DHT22;17046;52.074;4.748;2023-03-14T17:21:51;6.90;99.90
30234;DHT22;17046;52.074;4.748;2023-03-14T17:24:17;6.50;99.90
30234;DHT22;17046;52.074;4.748;2023-03-14T17:26:44;6.60;99.90
30234;DHT22;17046;52.074;4.748;2023-03-14T17:31:35;6.20;99.90
30234;DHT22;17046;52.074;4.748;2023-03-14T17:34:01;6.30;99.90
30234;DHT22;17046;52.074;4.748;2023-03-14T17:36:27;5.90;99.90
30234;DHT22;17046;52.074;4.748;2023-03-14T17:38:55;5.90;99.90
30234;DHT22;17046;52.074;4.748;2023-03-14T17:41:20;6.00;99.90
30234;DHT22;17046;52.074;4.748;2023-03-14T17:43:46;5.60;99.90
30234;DHT22;17046;52.074;4.748;2023-03-14T17:46:13;5.60;99.90
30234;DHT22;17046;52.074;4.748;2023-03-14T17:48:41;5.80;99.90
30234;DHT22;17046;52.074;4.748;2023-03-14T17:51:08;4.70;99.90
30234;DHT22;17046;52.074;4.748;2023-03-14T17:55:59;5.50;99.90
30234;DHT22;17046;52.074;4.748;2023-03-14T17:58:25;4.90;99.90
30234;DHT22;17046;52.074;4.748;2023-03-14T18:00:52;5.10;99.90
30234;DHT22;17046;52.074;4.748;2023-03-14T18:05:44;4.80;99.90
30234;DHT22;17046;52.074;4.748;2023-03-14T18:08:12;4.60;99.90
30234;DHT22;17046;52.074;4.748;2023-03-14T18:15:30;4.40;1.00
30234;DHT22;17046;52.074;4.748;2023-03-14T18:17:59;4.60;1.00
30234;DHT22;17046;52.074;4.748;2023-03-14T18:20:26;4.40;1.00
30234;DHT22;17046;52.074;4.748;2023-03-14T18:30:10;4.20;1.00
30234;DHT22;17046;52.074;4.748;2023-03-14T18:32:36;3.20;6.80
30234;DHT22;17046;52.074;4.748;2023-03-14T18:35:02;4.30;59.40
30234;DHT22;17046;52.074;4.748;2023-03-14T18:37:28;4.10;98.00
30234;DHT22;17046;52.074;4.748;2023-03-14T18:42:20;3.80;99.90
30234;DHT22;17046;52.074;4.748;2023-03-14T18:44:45;4.00;99.90
30234;DHT22;17046;52.074;4.748;2023-03-14T18:47:11;4.00;99.90
30234;DHT22;17046;52.074;4.748;2023-03-14T18:52:03;3.80;99.90
30234;DHT22;17046;52.074;4.748;2023-03-14T18:54:28;3.80;99.90
30234;DHT22;17046;52.074;4.748;2023-03-14T18:56:54;3.60;99.90
30234;DHT22;17046;52.074;4.748;2023-03-14T19:01:46;3.90;99.90
30234;DHT22;17046;52.074;4.748;2023-03-14T19:04:11;3.80;99.90
30234;DHT22;17046;52.074;4.748;2023-03-14T19:06:37;3.80;99.90
30234;DHT22;17046;52.074;4.748;2023-03-14T19:09:03;3.70;99.90
30234;DHT22;17046;52.074;4.748;2023-03-14T19:16:24;3.50;99.90
30234;DHT22;17046;52.074;4.748;2023-03-14T19:18:49;3.80;99.90
30234;DHT22;17046;52.074;4.748;2023-03-14T19:21:26;3.80;99.90
30234;DHT22;17046;52.074;4.748;2023-03-14T19:28:43;4.00;99.90
30234;DHT22;17046;52.074;4.748;2023-03-14T19:31:09;3.80;99.90
30234;DHT22;17046;52.074;4.748;2023-03-14T19:40:57;4.20;97.20
30234;DHT22;17046;52.074;4.748;2023-03-14T19:50:42;4.20;99.90
30234;DHT22;17046;52.074;4.748;2023-03-14T19:53:09;4.70;1.00
30234;DHT22;17046;52.074;4.748;2023-03-14T19:55:35;4.70;1.00
30234;DHT22;17046;52.074;4.748;2023-03-14T20:02:54;4.70;57.70
30234;DHT22;17046;52.074;4.748;2023-03-14T20:05:21;4.10;88.90
30234;DHT22;17046;52.074;4.748;2023-03-14T20:10:16;4.50;56.00
30234;DHT22;17046;52.074;4.748;2023-03-14T20:12:43;4.70;99.90
30234;DHT22;17046;52.074;4.748;2023-03-14T20:15:10;4.90;96.00
30234;DHT22;17046;52.074;4.748;2023-03-14T20:17:37;4.90;60.20
30234;DHT22;17046;52.074;4.748;2023-03-14T20:20:06;4.50;55.00
30234;DHT22;17046;52.074;4.748;2023-03-14T20:22:34;4.40;19.80
30234;DHT22;17046;52.074;4.748;2023-03-14T20:27:29;3.30;99.90
30234;DHT22;17046;52.074;4.748;2023-03-14T20:29:56;5.30;95.70
30234;DHT22;17046;52.074;4.748;2023-03-14T20:32:21;4.10;99.90
30234;DHT22;17046;52.074;4.748;2023-03-14T20:34:48;3.70;99.90
30234;DHT22;17046;52.074;4.748;2023-03-14T20:37:13;3.90;99.90
30234;DHT22;17046;52.074;4.748;2023-03-14T20:39:39;4.10;99.90
30234;DHT22;17046;52.074;4.748;2023-03-14T20:42:05;4.10;99.90